Terminal Aerodrome Forecast
Issued by NWS

Home | Current Version | Previous Version | Text Only | Print | Product List | Glossary On
Versions: 1 2 3 4 5 6 7 8 9 10 11 12 13 14 15 16 17 18 19 20
000
FTUS41 KGYX 221122
TAFHIE
TAF
KHIE 221122Z 2212/2312 23005KT P6SM BKN040
     FM221300 27013G22KT P6SM OVC040
     FM230300 26004KT P6SM OVC045=

USA.gov is the U.S. government's official web portal to all federal, state and local government web resources and services.